Time;durP1;ratioP1;P1;durP2;ratioP2;P2;SDS_P1;SDS_P2;PMS_P1;PMS_P2;Temp;Humidity;BMP_temperature;BMP_pressure;BME280_temperature;BME280_humidity;BME280_pressure;Samples;Min_cycle;Max_cycle;Signal;HPM_P1;HPM_P2
2021/10/29 00:00:53;;;;;;;13.75;11.90;;;;;;;11.54;72.84;100701.34;1695825;83;21592;-60
2021/10/29 00:03:22;;;;;;;15.60;11.60;;;;;;;11.50;72.73;100701.03;1701166;83;21568;-59
2021/10/29 00:05:49;;;;;;;13.25;11.35;;;;;;;11.47;72.72;100695.84;1695641;83;21541;-59
2021/10/29 00:08:16;;;;;;;13.10;10.82;;;;;;;11.43;72.65;100699.05;1677329;83;21432;-59
2021/10/29 00:10:42;;;;;;;17.90;11.78;;;;;;;11.37;72.57;100695.25;1674017;84;21554;-59
2021/10/29 00:13:09;;;;;;;16.70;11.38;;;;;;;11.35;72.96;100697.53;1648913;84;21805;-59
2021/10/29 00:15:38;;;;;;;15.05;11.55;;;;;;;11.42;72.94;100696.45;1659622;84;21622;-58
2021/10/29 00:18:05;;;;;;;14.68;11.78;;;;;;;11.42;72.82;100693.36;1655660;85;21039;-59
2021/10/29 00:20:32;;;;;;;14.50;12.53;;;;;;;11.38;72.99;100692.19;1673274;85;21519;-59
2021/10/29 00:23:00;;;;;;;16.62;12.78;;;;;;;11.36;72.89;100692.66;1666985;84;21568;-59
2021/10/29 00:25:27;;;;;;;17.13;11.07;;;;;;;11.32;72.91;100689.71;1655532;85;21688;-59
2021/10/29 00:27:53;;;;;;;14.83;11.43;;;;;;;11.35;73.08;100695.75;1658869;84;21513;-59
2021/10/29 00:30:20;;;;;;;14.20;11.38;;;;;;;11.43;73.07;100688.94;1651823;84;21559;-58
2021/10/29 00:32:48;;;;;;;18.20;11.97;;;;;;;11.43;73.06;100687.63;1660724;85;21604;-61
2021/10/29 00:35:15;;;;;;;17.92;12.20;;;;;;;11.38;72.99;100683.83;1677394;85;21432;-59
2021/10/29 00:37:42;;;;;;;15.48;11.78;;;;;;;11.33;73.04;100680.92;1705361;83;21781;-59
2021/10/29 00:40:11;;;;;;;17.70;12.25;;;;;;;11.28;73.11;100689.83;1707528;83;21494;-58
2021/10/29 00:42:38;;;;;;;12.85;10.85;;;;;;;11.26;73.53;100692.95;1695305;83;21519;-59
2021/10/29 00:45:06;;;;;;;14.05;11.43;;;;;;;11.33;73.62;100692.77;1712366;81;21484;-58
2021/10/29 00:47:34;;;;;;;14.98;11.97;;;;;;;11.35;73.63;100691.80;1699880;83;21470;-58
2021/10/29 00:50:03;;;;;;;14.33;11.65;;;;;;;11.34;73.59;100691.84;1710142;83;21700;-59
2021/10/29 00:52:30;;;;;;;15.55;12.10;;;;;;;11.32;73.52;100694.98;1703397;83;21572;-59
2021/10/29 00:54:57;;;;;;;14.63;11.75;;;;;;;11.28;73.45;100697.72;1711279;83;21466;-59
2021/10/29 00:57:24;;;;;;;14.05;11.00;;;;;;;11.28;73.59;100699.03;1708182;83;21530;-59
2021/10/29 00:59:50;;;;;;;15.63;11.68;;;;;;;11.38;73.52;100699.62;1709174;83;21455;-59
2021/10/29 01:02:17;;;;;;;15.55;12.45;;;;;;;11.40;73.34;100704.39;1708700;83;21856;-59
2021/10/29 01:04:43;;;;;;;13.98;12.58;;;;;;;11.39;73.27;100703.11;1702943;83;21116;-59
2021/10/29 01:07:10;;;;;;;17.17;12.95;;;;;;;11.36;73.21;100701.44;1700412;81;21039;-58
2021/10/29 01:09:37;;;;;;;16.55;12.15;;;;;;;11.30;73.18;100701.60;1698872;82;21542;-59
2021/10/29 01:12:06;;;;;;;14.18;12.07;;;;;;;11.29;73.44;100694.63;1695582;82;21626;-59
2021/10/29 01:14:33;;;;;;;16.60;12.73;;;;;;;11.36;73.42;100699.24;1702257;82;21868;-58
2021/10/29 01:17:00;;;;;;;18.23;12.10;;;;;;;11.35;73.39;100695.75;1709721;82;21613;-59
2021/10/29 01:19:33;;;;;;;18.75;12.68;;;;;;;11.30;73.42;100690.64;1703435;82;21548;-59
2021/10/29 01:22:00;;;;;;;20.17;14.33;;;;;;;11.29;73.32;100688.05;1712294;82;21047;-59
2021/10/29 01:24:27;;;;;;;15.50;12.33;;;;;;;11.25;73.38;100695.16;1700330;82;21527;-59
2021/10/29 01:26:54;;;;;;;21.70;13.60;;;;;;;11.28;73.62;100692.45;1716987;81;21811;-59
2021/10/29 01:29:20;;;;;;;16.37;13.10;;;;;;;11.40;73.49;100702.22;1699869;82;21045;-59
2021/10/29 01:31:48;;;;;;;21.45;12.93;;;;;;;11.39;73.26;100695.22;1704786;82;21552;-59
2021/10/29 01:34:14;;;;;;;19.48;13.60;;;;;;;11.33;73.33;100691.45;1712229;82;21042;-59
2021/10/29 01:36:43;;;;;;;15.03;12.82;;;;;;;11.28;73.23;100695.52;1705583;82;21570;-59
2021/10/29 01:39:16;;;;;;;20.15;13.32;;;;;;;11.26;73.28;100696.02;1706283;82;22158;-60
2021/10/29 01:41:43;;;;;;;18.23;14.30;;;;;;;11.30;73.35;100701.60;1701828;82;21534;-60
2021/10/29 01:44:10;;;;;;;16.05;13.62;;;;;;;11.37;73.20;100697.03;1700146;82;21923;-60
2021/10/29 01:46:37;;;;;;;21.65;14.10;;;;;;;11.37;73.10;100698.34;1708067;82;21464;-60
2021/10/29 01:49:04;;;;;;;16.12;14.43;;;;;;;11.34;73.05;100695.80;1715194;82;21580;-59
2021/10/29 01:51:31;;;;;;;24.23;15.55;;;;;;;11.31;72.93;100690.17;1705912;82;21785;-60
2021/10/29 01:53:58;;;;;;;20.45;14.03;;;;;;;11.27;72.96;100695.98;1705101;82;21445;-60
2021/10/29 01:56:25;;;;;;;19.37;15.13;;;;;;;11.30;73.29;100687.12;1702417;82;28239;-61
2021/10/29 01:58:52;;;;;;;17.57;13.65;;;;;;;11.40;73.15;100697.81;1721808;82;21463;-60
2021/10/29 02:01:19;;;;;;;26.05;15.30;;;;;;;11.40;72.98;100699.59;1712770;82;21515;-59
2021/10/29 02:03:45;;;;;;;17.87;14.25;;;;;;;11.33;72.99;100702.84;1707103;82;21898;-60
2021/10/29 02:06:12;;;;;;;18.45;14.83;;;;;;;11.30;73.08;100700.28;1698454;82;21069;-59
2021/10/29 02:08:39;;;;;;;17.90;13.62;;;;;;;11.27;72.94;100701.71;1720510;82;21050;-60
2021/10/29 02:11:06;;;;;;;18.02;13.50;;;;;;;11.27;73.30;100699.93;1712225;82;21428;-59
2021/10/29 02:13:33;;;;;;;17.40;14.13;;;;;;;11.35;73.09;100700.16;1709441;82;21487;-59
2021/10/29 02:16:00;;;;;;;16.50;13.88;;;;;;;11.32;73.08;100700.25;1682986;84;21621;-62
2021/10/29 02:18:27;;;;;;;19.42;14.80;;;;;;;11.28;73.17;100702.98;1662855;84;21456;-60
2021/10/29 02:20:53;;;;;;;19.60;15.05;;;;;;;11.25;73.22;100706.16;1663670;84;21640;-59
2021/10/29 02:23:20;;;;;;;17.02;13.72;;;;;;;11.23;73.24;100704.02;1664252;84;21598;-60
2021/10/29 02:25:47;;;;;;;19.27;14.58;;;;;;;11.24;73.38;100708.36;1661373;84;21566;-58
2021/10/29 02:28:19;;;;;;;17.87;13.83;;;;;;;11.30;73.37;100709.06;1668742;84;21623;-58
2021/10/29 02:30:46;;;;;;;20.35;14.28;;;;;;;11.30;73.21;100714.77;1672438;84;21677;-60
2021/10/29 02:33:16;;;;;;;18.60;14.55;;;;;;;11.26;73.20;100714.45;1671480;84;21586;-60
2021/10/29 02:35:43;;;;;;;20.43;14.43;;;;;;;11.21;73.39;100717.69;1663521;84;21582;-57
2021/10/29 02:38:11;;;;;;;17.62;13.78;;;;;;;11.17;73.34;100719.97;1677381;84;21561;-58
2021/10/29 02:40:37;;;;;;;19.37;14.80;;;;;;;11.17;73.59;100720.86;1671400;84;22698;-58
2021/10/29 02:43:04;;;;;;;22.25;15.32;;;;;;;11.23;73.46;100707.97;1712047;82;21570;-59
2021/10/29 02:45:30;;;;;;;17.20;14.23;;;;;;;11.20;73.46;100710.69;1717824;82;21630;-58
2021/10/29 02:47:57;;;;;;;17.07;15.03;;;;;;;11.16;73.55;100715.63;1725467;82;21010;-59
2021/10/29 02:50:24;;;;;;;18.87;16.57;;;;;;;11.11;73.43;100717.06;1714804;82;21432;-59
2021/10/29 02:52:51;;;;;;;20.20;15.00;;;;;;;11.07;73.52;100711.02;1711674;82;21489;-58
2021/10/29 02:55:19;;;;;;;18.98;15.85;;;;;;;11.07;73.61;100712.33;1709258;82;21598;-59
2021/10/29 02:57:46;;;;;;;22.07;15.43;;;;;;;11.13;73.61;100714.39;1707873;82;21643;-59
2021/10/29 03:00:15;;;;;;;24.27;16.17;;;;;;;11.11;73.61;100715.73;1679261;84;21542;-59
2021/10/29 03:02:42;;;;;;;22.32;15.88;;;;;;;11.07;73.46;100719.37;1667081;84;21573;-59
2021/10/29 03:05:10;;;;;;;21.25;16.45;;;;;;;11.03;73.51;100725.63;1674086;83;21794;-59
2021/10/29 03:07:36;;;;;;;18.13;14.90;;;;;;;10.97;73.59;100730.61;1671637;84;21787;-59
2021/10/29 03:10:07;;;;;;;18.67;15.38;;;;;;;10.98;73.84;100722.25;1659574;85;21771;-58
2021/10/29 03:12:35;;;;;;;18.40;15.13;;;;;;;11.05;73.69;100728.62;1672690;84;21498;-59
2021/10/29 03:15:02;;;;;;;21.68;15.78;;;;;;;11.04;73.67;100735.27;1681587;84;21509;-59
2021/10/29 03:17:29;;;;;;;18.92;15.68;;;;;;;11.00;73.66;100729.22;1667392;84;21757;-59
2021/10/29 03:19:56;;;;;;;19.57;16.52;;;;;;;10.96;73.63;100734.12;1681350;84;21504;-59
2021/10/29 03:22:23;;;;;;;20.25;15.75;;;;;;;10.90;73.74;100736.47;1659830;85;21610;-59
2021/10/29 03:24:50;;;;;;;20.17;15.70;;;;;;;10.91;74.02;100737.36;1650316;84;21530;-58
2021/10/29 03:27:18;;;;;;;20.02;15.75;;;;;;;10.99;74.09;100733.20;1684017;83;21567;-58
2021/10/29 03:29:46;;;;;;;23.02;16.65;;;;;;;10.98;73.93;100728.41;1665501;84;21542;-58
2021/10/29 03:32:13;;;;;;;19.63;16.20;;;;;;;10.95;73.89;100736.36;1679208;84;21781;-58
2021/10/29 03:34:39;;;;;;;21.23;15.78;;;;;;;10.89;73.96;100726.02;1673102;84;21024;-59
2021/10/29 03:37:17;;;;;;;21.80;15.32;;;;;;;10.86;73.86;100732.66;1681985;84;21575;-60
2021/10/29 03:39:41;;;;;;;22.98;15.10;;;;;;;10.88;74.20;100729.53;1666628;84;21508;-59
2021/10/29 03:42:13;;;;;;;23.60;15.28;;;;;;;10.95;74.04;100731.56;1666452;84;22092;-59
2021/10/29 03:44:58;;;;;;;20.82;16.07;;;;;;;10.90;73.89;100729.89;1663941;84;21574;-58
2021/10/29 03:47:19;;;;;;;23.73;16.00;;;;;;;10.82;73.95;100726.62;1673999;84;21555;-58
2021/10/29 03:49:52;;;;;;;20.05;16.80;;;;;;;10.75;73.92;100731.62;1668769;84;21570;-59
2021/10/29 03:52:25;;;;;;;20.57;16.15;;;;;;;10.68;73.80;100732.25;1666239;84;21672;-60
2021/10/29 03:54:51;;;;;;;18.67;15.45;;;;;;;10.66;73.82;100733.17;1667450;84;21808;-59
2021/10/29 03:57:25;;;;;;;21.42;16.00;;;;;;;10.69;73.74;100734.42;1674763;84;21447;-59
2021/10/29 03:59:53;;;;;;;19.95;15.72;;;;;;;10.59;73.54;100732.94;1673085;83;21554;-59
2021/10/29 04:02:21;;;;;;;20.70;16.05;;;;;;;10.49;73.47;100732.28;1668712;84;21573;-60
2021/10/29 04:04:50;;;;;;;22.40;16.27;;;;;;;10.36;73.37;100738.33;1666140;84;21585;-59
2021/10/29 04:07:16;;;;;;;21.55;15.23;;;;;;;10.23;73.50;100736.86;1669483;84;21887;-60
2021/10/29 04:09:44;;;;;;;19.92;15.72;;;;;;;10.17;73.39;100743.13;1671677;84;21609;-59
2021/10/29 04:12:12;;;;;;;;;;;;;;;10.19;73.09;100743.95;1677937;84;21016;-59
2021/10/29 04:14:39;;;;;;;19.15;16.55;;;;;;;10.11;72.70;100739.31;1673614;84;20456;-59
2021/10/29 04:17:05;;;;;;;22.73;17.15;;;;;;;9.99;72.81;100745.72;1661096;84;21610;-59
2021/10/29 04:19:32;;;;;;;20.68;16.65;;;;;;;9.88;72.78;100750.34;1672507;84;21737;-60
2021/10/29 04:22:00;;;;;;;24.03;16.13;;;;;;;9.75;72.64;100745.36;1668964;84;21516;-59
2021/10/29 04:24:27;;;;;;;19.75;15.23;;;;;;;9.65;72.73;100751.72;1673893;83;21577;-59
2021/10/29 04:26:58;;;;;;;20.10;17.17;;;;;;;9.60;72.80;100751.40;1673657;84;26911;-58
2021/10/29 04:29:26;;;;;;;20.50;16.57;;;;;;;9.61;73.34;100752.69;1672835;83;21544;-59
2021/10/29 04:31:53;;;;;;;18.48;16.25;;;;;;;9.51;73.61;100757.27;1661942;84;22067;-59
2021/10/29 04:34:25;;;;;;;21.30;16.82;;;;;;;9.41;73.75;100758.80;1670328;84;27288;-59
2021/10/29 04:36:53;;;;;;;19.87;16.93;;;;;;;9.32;73.70;100763.34;1672235;84;21588;-59
2021/10/29 04:39:19;;;;;;;;;;;;;;;9.21;73.76;100757.44;1674934;84;21112;-59
2021/10/29 04:41:50;;;;;;;21.73;14.85;;;;;;;9.16;73.97;100766.69;1662761;84;20462;-59
2021/10/29 04:44:20;;;;;;;19.32;15.65;;;;;;;9.18;73.80;100768.44;1667135;84;21793;-59
2021/10/29 04:46:48;;;;;;;20.90;15.45;;;;;;;9.14;73.79;100767.62;1678231;84;21649;-59
2021/10/29 04:49:14;;;;;;;20.15;17.10;;;;;;;9.06;73.81;100776.95;1669518;84;21500;-59
2021/10/29 04:51:41;;;;;;;20.95;16.82;;;;;;;8.96;73.74;100772.30;1667243;84;21582;-59
2021/10/29 04:54:08;;;;;;;17.80;14.53;;;;;;;8.89;74.08;100777.27;1667804;84;21582;-59
2021/10/29 04:56:35;;;;;;;19.20;15.85;;;;;;;8.87;74.54;100785.61;1670384;83;22040;-59
2021/10/29 04:59:02;;;;;;;19.33;15.83;;;;;;;8.94;74.47;100783.72;1669952;83;21501;-59
2021/10/29 05:01:28;;;;;;;17.05;15.28;;;;;;;8.94;74.27;100787.20;1681207;83;21546;-58
2021/10/29 05:03:55;;;;;;;22.50;16.60;;;;;;;8.89;74.48;100790.38;1678495;84;21678;-60
2021/10/29 05:06:22;;;;;;;20.95;15.72;;;;;;;8.86;74.61;100786.94;1622670;87;21578;-59
2021/10/29 05:08:49;;;;;;;19.42;15.95;;;;;;;8.81;74.62;100791.39;1645800;84;21998;-59
2021/10/29 05:11:15;;;;;;;24.63;16.52;;;;;;;8.77;74.78;100800.61;1676396;84;20963;-59
2021/10/29 05:13:42;;;;;;;21.65;16.32;;;;;;;8.87;74.94;100800.45;1663715;84;21651;-59
2021/10/29 05:16:08;;;;;;;23.92;15.83;;;;;;;8.84;76.18;100807.94;1659688;84;21143;-60
2021/10/29 05:18:35;;;;;;;19.92;15.98;;;;;;;8.71;76.75;100812.98;1664218;83;21464;-59
2021/10/29 05:21:02;;;;;;;20.27;16.10;;;;;;;8.64;77.00;100808.72;1652844;85;21745;-60
2021/10/29 05:23:29;;;;;;;21.48;15.93;;;;;;;8.67;77.91;100806.91;1676249;83;21543;-61
2021/10/29 05:25:56;;;;;;;21.10;15.65;;;;;;;8.79;77.84;100812.84;1706195;82;21543;-60
2021/10/29 05:28:22;;;;;;;18.10;15.45;;;;;;;8.79;78.17;100813.70;1704674;82;21510;-60
2021/10/29 05:30:49;;;;;;;21.25;16.35;;;;;;;8.79;78.07;100816.32;1703908;82;21504;-59
2021/10/29 05:33:16;;;;;;;19.90;16.47;;;;;;;8.80;77.92;100814.14;1702161;82;21780;-60
2021/10/29 05:35:43;;;;;;;20.62;15.83;;;;;;;8.91;78.35;100820.06;1713596;82;21526;-60
2021/10/29 05:38:09;;;;;;;18.52;15.32;;;;;;;9.06;78.15;100815.00;1714514;82;21445;-60
2021/10/29 05:40:36;;;;;;;17.92;15.70;;;;;;;9.15;77.83;100817.88;1708708;82;21575;-62
2021/10/29 05:43:03;;;;;;;20.12;16.17;;;;;;;9.22;77.91;100819.96;1694167;82;21609;-63
2021/10/29 05:45:31;;;;;;;19.98;16.27;;;;;;;9.24;77.98;100816.41;1699996;82;21594;-64
2021/10/29 05:48:03;;;;;;;23.02;17.00;;;;;;;9.35;78.32;100815.75;1707672;82;21566;-67
2021/10/29 05:50:26;;;;;;;19.02;15.80;;;;;;;9.55;78.42;100819.31;1695632;82;21682;-65
2021/10/29 05:52:53;;;;;;;21.42;16.97;;;;;;;9.68;78.33;100826.51;1701388;82;21117;-63
2021/10/29 05:55:20;;;;;;;20.07;16.47;;;;;;;9.73;78.41;100824.63;1702242;82;21522;-63
2021/10/29 05:57:50;;;;;;;20.00;15.27;;;;;;;9.81;78.67;100819.67;1701520;82;21819;-64
2021/10/29 06:00:23;;;;;;;19.87;15.28;;;;;;;9.91;78.88;100822.08;1704027;82;22308;-64
2021/10/29 06:02:50;;;;;;;18.45;15.80;;;;;;;10.08;78.66;100818.23;1702594;82;21488;-64
2021/10/29 06:05:17;;;;;;;24.33;16.33;;;;;;;10.17;78.44;100813.20;1696854;82;21478;-64
2021/10/29 06:07:46;;;;;;;20.90;17.50;;;;;;;10.20;78.60;100822.34;1700388;82;21090;-63
2021/10/29 06:10:14;;;;;;;20.17;15.93;;;;;;;10.22;78.80;100831.91;1705213;82;21995;-64
2021/10/29 06:12:44;;;;;;;24.37;16.65;;;;;;;10.32;78.76;100829.97;1712591;81;21985;-64
2021/10/29 06:15:15;;;;;;;19.25;16.48;;;;;;;10.49;78.27;100825.20;1705773;82;21495;-63
2021/10/29 06:17:42;;;;;;;20.12;17.40;;;;;;;10.59;77.99;100826.30;1707566;82;21561;-63
2021/10/29 06:20:10;;;;;;;25.83;19.73;;;;;;;10.61;77.97;100833.25;1714877;82;21419;-65
2021/10/29 06:22:41;;;;;;;22.30;17.95;;;;;;;10.63;78.05;100829.27;1716949;82;21491;-65
2021/10/29 06:25:14;;;;;;;22.20;18.05;;;;;;;10.70;78.18;100830.39;1717152;82;21587;-64
2021/10/29 06:30:07;;;;;;;22.60;18.25;;;;;;;10.94;77.92;100834.62;1727685;81;21483;-65
2021/10/29 06:32:34;;;;;;;23.85;16.95;;;;;;;10.98;77.86;100840.24;1721204;82;21534;-65
2021/10/29 06:35:01;;;;;;;21.40;15.83;;;;;;;11.01;77.74;100845.41;1641531;85;21581;-66
2021/10/29 06:37:27;;;;;;;18.07;15.83;;;;;;;11.10;77.80;100844.31;1675877;82;21617;-66
2021/10/29 06:39:54;;;;;;;19.17;14.38;;;;;;;11.29;77.88;100840.75;1729480;80;21550;-61
2021/10/29 06:42:27;;;;;;;17.10;14.43;;;;;;;11.42;77.66;100848.73;1727304;82;21605;-63
2021/10/29 07:00:37;;;;;;;17.48;13.53;;;;;;;12.27;74.95;100851.59;1705561;82;21783;-62
2021/10/29 07:42:44;;;;;;;11.33;9.28;;;;;;;13.79;69.22;100866.80;1739561;80;22155;-62
2021/10/29 07:45:09;;;;;;;12.45;9.13;;;;;;;13.86;68.97;100869.59;1727416;81;20978;-62
2021/10/29 07:47:39;;;;;;;9.65;8.68;;;;;;;13.92;68.62;100865.42;1733584;80;21460;-62
2021/10/29 07:50:07;;;;;;;;;;;;;;;14.05;68.34;100868.91;1742460;80;20976;-60
2021/10/29 07:52:33;;;;;;;9.40;8.50;;;;;;;14.12;67.77;100865.97;1732654;80;20427;-60
2021/10/29 07:55:00;;;;;;;13.03;8.70;;;;;;;14.17;67.32;100871.96;1746186;81;21810;-61
2021/10/29 07:57:27;;;;;;;10.48;8.05;;;;;;;14.18;66.99;100872.38;1733421;81;21493;-60
2021/10/29 07:59:55;;;;;;;9.45;8.58;;;;;;;14.28;67.50;100870.23;1733494;80;21501;-61
2021/10/29 08:02:23;;;;;;;11.93;9.65;;;;;;;14.44;67.22;100873.59;1731302;80;21576;-60
2021/10/29 08:04:50;;;;;;;14.73;9.78;;;;;;;14.56;65.87;100876.63;1743283;80;21428;-59
2021/10/29 08:07:17;;;;;;;16.50;10.00;;;;;;;14.52;65.70;100879.44;1733824;80;21788;-60
2021/10/29 08:09:44;;;;;;;18.40;10.53;;;;;;;14.54;66.05;100877.59;1747766;80;21549;-61
2021/10/29 08:12:14;;;;;;;24.80;11.35;;;;;;;14.63;65.82;100875.94;1738315;80;21581;-60
2021/10/29 08:14:41;;;;;;;18.17;11.78;;;;;;;14.67;65.57;100874.88;1726646;80;21513;-60
2021/10/29 08:17:07;;;;;;;24.05;12.58;;;;;;;14.64;64.54;100880.32;1744381;81;21069;-62
2021/10/29 08:19:37;;;;;;;28.05;13.75;;;;;;;14.53;65.04;100879.86;1747597;80;21536;-62
2021/10/29 08:22:04;;;;;;;21.93;12.78;;;;;;;14.51;65.08;100881.70;1737586;80;21695;-61
2021/10/29 08:24:37;;;;;;;21.27;11.50;;;;;;;14.47;65.08;100886.72;1726076;81;21683;-62
2021/10/29 08:27:06;;;;;;;23.02;11.63;;;;;;;14.52;65.33;100883.41;1722038;81;21581;-61
2021/10/29 08:29:33;;;;;;;21.95;12.07;;;;;;;14.65;65.06;100890.44;1706037;81;21640;-62
2021/10/29 08:32:00;;;;;;;17.85;11.75;;;;;;;14.70;65.01;100891.98;1722180;82;22108;-62
2021/10/29 08:34:27;;;;;;;15.43;10.78;;;;;;;14.77;64.61;100891.28;1713393;82;21498;-61
2021/10/29 08:36:56;;;;;;;16.50;12.18;;;;;;;14.87;64.22;100887.80;1715043;81;21569;-61
2021/10/29 08:39:23;;;;;;;12.10;10.43;;;;;;;14.94;64.02;100890.59;1717370;82;21064;-63
2021/10/29 08:41:52;;;;;;;15.55;11.57;;;;;;;15.02;63.82;100885.84;1724612;81;27107;-62
2021/10/29 08:44:18;;;;;;;12.37;10.05;;;;;;;15.06;63.59;100894.52;1710717;81;22153;-62
2021/10/29 08:46:46;;;;;;;13.35;10.25;;;;;;;15.06;62.97;100886.09;1716782;81;21564;-61
2021/10/29 08:49:15;;;;;;;13.75;10.82;;;;;;;15.07;62.57;100887.84;1711622;81;21451;-62
2021/10/29 08:51:42;;;;;;;10.90;9.60;;;;;;;15.08;62.11;100885.57;1706519;82;21470;-62
2021/10/29 08:54:10;;;;;;;13.80;10.25;;;;;;;15.14;61.92;100885.34;1722653;81;21558;-61
2021/10/29 08:56:36;;;;;;;11.93;9.78;;;;;;;15.22;61.61;100881.48;1716087;82;21814;-62
2021/10/29 08:59:21;;;;;;;10.45;9.33;;;;;;;15.27;60.29;100884.80;1713094;81;21561;-62
2021/10/29 09:02:09;;;;;;;11.57;10.38;;;;;;;15.21;61.13;100881.09;1715586;81;21663;-61
2021/10/29 09:04:51;;;;;;;10.48;9.38;;;;;;;15.23;60.98;100885.87;1717383;82;21616;-62
2021/10/29 09:33:07;;;;;;;9.83;8.83;;;;;;;16.85;57.07;100876.75;1665839;84;21646;-62
2021/10/29 09:35:37;;;;;;;9.08;8.13;;;;;;;17.12;56.39;100869.19;1661821;85;21615;-63
2021/10/29 09:38:10;;;;;;;7.17;6.47;;;;;;;17.34;55.34;100864.97;1690112;83;21810;-63
2021/10/29 09:41:02;;;;;;;7.37;6.67;;;;;;;17.50;53.80;100871.22;1715420;82;21480;-64
2021/10/29 09:43:32;;;;;;;8.38;7.08;;;;;;;17.69;52.70;100867.59;1682618;83;21411;-61
2021/10/29 09:46:01;;;;;;;7.37;6.65;;;;;;;17.72;52.19;100876.72;1716211;80;21525;-61
2021/10/29 09:48:43;;;;;;;6.33;5.83;;;;;;;17.42;52.32;100869.88;1730897;80;21586;-61
2021/10/29 09:50:58;;;;;;;6.28;5.60;;;;;;;17.33;51.95;100876.55;1724226;81;21802;-60
2021/10/29 09:56:32;;;;;;;5.87;5.37;;;;;;;17.08;52.31;100872.94;1725515;81;21558;-61
2021/10/29 09:58:52;;;;;;;6.42;5.83;;;;;;;17.02;52.62;100882.55;1724131;81;21575;-61
2021/10/29 10:01:19;;;;;;;6.03;5.42;;;;;;;16.96;52.48;100882.39;1724726;81;21380;-62
2021/10/29 10:03:50;;;;;;;6.15;5.65;;;;;;;16.80;52.51;100872.09;1730285;81;21783;-62
2021/10/29 10:06:20;;;;;;;6.55;5.87;;;;;;;16.62;53.10;100872.54;1719568;81;20925;-62
2021/10/29 10:08:47;;;;;;;5.00;4.50;;;;;;;16.62;53.10;100872.54;1725040;81;21525;-61
2021/10/29 10:11:15;;;;;;;6.12;5.05;;;;;;;16.59;52.75;100875.33;1724213;81;21558;-62
2021/10/29 10:13:43;;;;;;;5.70;5.20;;;;;;;16.50;52.67;100868.22;1719644;81;21661;-61
2021/10/29 10:16:10;;;;;;;5.50;4.50;;;;;;;16.48;52.83;100868.76;1738103;81;21660;-62
2021/10/29 10:18:37;;;;;;;5.62;5.17;;;;;;;16.46;52.74;100867.09;1729432;81;21014;-61
2021/10/29 10:21:05;;;;;;;8.43;4.00;;;;;;;16.52;52.53;100865.48;1718386;82;21585;-63
2021/10/29 10:23:35;;;;;;;5.53;3.95;;;;;;;16.59;52.18;100872.20;1707149;81;21605;-62
2021/10/29 10:40:12;;;;;;;5.45;3.52;;;;;;;16.71;50.91;100866.31;1681308;84;21502;-61
2021/10/29 10:45:32;;;;;;;5.75;5.22;;;;;;;16.69;51.23;100868.18;1689973;83;21426;-61
2021/10/29 10:47:40;;;;;;;7.28;3.98;;;;;;;16.68;50.59;100869.58;1680893;81;21556;-62
2021/10/29 10:50:14;;;;;;;4.62;4.22;;;;;;;16.58;51.01;100870.50;1683592;83;21020;-63
2021/10/29 10:53:16;;;;;;;6.60;4.92;;;;;;;16.52;50.94;100866.82;1685050;83;21443;-61
2021/10/29 10:56:13;;;;;;;7.15;4.55;;;;;;;16.45;50.88;100865.39;1681142;83;21557;-60
2021/10/29 11:10:11;;;;;;;4.42;4.03;;;;;;;16.19;50.86;100858.66;1629592;83;22111;-62
2021/10/29 11:12:46;;;;;;;5.42;4.35;;;;;;;16.15;51.10;100861.91;1678076;84;21023;-62
2021/10/29 11:15:23;;;;;;;4.62;3.98;;;;;;;16.16;51.11;100862.30;1679887;84;21111;-62
2021/10/29 11:17:59;;;;;;;5.60;5.00;;;;;;;16.24;51.31;100860.64;1686833;83;21553;-62
2021/10/29 11:20:42;;;;;;;5.72;4.83;;;;;;;16.33;51.23;100859.73;1681690;84;21115;-61
2021/10/29 11:23:20;;;;;;;6.70;5.20;;;;;;;16.34;51.08;100855.27;1701931;80;21550;-62
2021/10/29 11:25:49;;;;;;;;;;;;;;;16.36;50.97;100854.73;1705602;83;21533;-61
2021/10/29 11:28:16;;;;;;;6.08;5.00;;;;;;;16.39;50.50;100857.69;1678684;84;20432;-62
2021/10/29 11:30:43;;;;;;;4.90;4.12;;;;;;;16.40;50.74;100857.63;1681769;83;21557;-63
2021/10/29 11:33:11;;;;;;;6.03;5.20;;;;;;;16.44;50.63;100855.69;1686784;83;21583;-62
2021/10/29 11:35:39;;;;;;;5.72;4.90;;;;;;;16.46;50.53;100851.16;1660015;84;21858;-63
2021/10/29 11:38:08;;;;;;;5.47;4.60;;;;;;;16.51;50.13;100857.13;1701311;83;21021;-63
2021/10/29 11:40:36;;;;;;;6.28;5.47;;;;;;;16.52;50.07;100856.20;1712248;81;21549;-64
2021/10/29 11:43:02;;;;;;;5.35;4.85;;;;;;;16.51;50.06;100859.30;1712322;82;21550;-65
2021/10/29 11:45:35;;;;;;;6.33;4.90;;;;;;;16.55;50.10;100862.67;1713600;82;21056;-64
2021/10/29 11:48:02;;;;;;;5.40;4.90;;;;;;;16.75;49.86;100857.73;1716788;82;21776;-65
2021/10/29 11:50:29;;;;;;;5.80;5.20;;;;;;;17.07;49.26;100858.80;1690207;82;21526;-68
2021/10/29 11:53:00;;;;;;;7.05;4.95;;;;;;;17.44;48.71;100852.05;1712995;82;21582;-65
2021/10/29 11:55:40;;;;;;;5.50;4.97;;;;;;;17.80;48.06;100856.36;1680409;83;21512;-65
2021/10/29 11:58:07;;;;;;;11.38;5.60;;;;;;;17.94;47.53;100851.20;1668469;83;21526;-64
2021/10/29 12:08:42;;;;;;;5.42;4.85;;;;;;;18.97;45.45;100842.76;1678945;83;21517;-65
2021/10/29 12:11:09;;;;;;;4.80;4.40;;;;;;;19.06;44.99;100838.22;1717093;80;21526;-65
2021/10/29 12:13:41;;;;;;;5.22;4.72;;;;;;;19.13;44.69;100840.51;1720469;81;21788;-64
2021/10/29 12:16:20;;;;;;;5.05;4.55;;;;;;;19.22;44.49;100839.48;1679645;83;21615;-63
2021/10/29 12:19:08;;;;;;;5.20;4.75;;;;;;;19.30;44.43;100839.50;1714269;82;21633;-67
2021/10/29 12:21:34;;;;;;;5.62;4.45;;;;;;;19.35;44.14;100831.60;1713039;82;21578;-64
2021/10/29 12:24:00;;;;;;;5.33;4.65;;;;;;;19.33;43.80;100832.17;1689391;82;21056;-63
2021/10/29 12:26:29;;;;;;;5.58;5.05;;;;;;;19.31;44.01;100831.86;1712548;82;21826;-64
2021/10/29 12:28:56;;;;;;;5.15;4.67;;;;;;;19.31;44.07;100827.86;1715807;82;21562;-66
2021/10/29 12:31:46;;;;;;;6.92;4.78;;;;;;;19.29;44.01;100822.66;1680676;84;21587;-64
2021/10/29 12:37:34;;;;;;;6.33;5.08;;;;;;;19.18;44.06;100827.29;1679791;83;21521;-60
2021/10/29 12:53:31;;;;;;;5.33;4.70;;;;;;;20.78;40.88;100818.56;1679269;83;21781;-61
2021/10/29 13:01:39;;;;;;;7.10;4.78;;;;;;;21.02;40.34;100818.34;1662501;83;21076;-62
2021/10/29 13:04:17;;;;;;;4.90;4.37;;;;;;;21.16;39.98;100817.77;1687938;82;21484;-61
2021/10/29 13:06:48;;;;;;;5.05;4.55;;;;;;;21.21;39.54;100814.80;1689255;82;21837;-60
2021/10/29 13:09:24;;;;;;;6.20;4.42;;;;;;;21.02;39.93;100813.88;1687130;82;21561;-61
2021/10/29 13:12:00;;;;;;;4.90;4.40;;;;;;;21.05;39.62;100811.45;1716347;82;21096;-62
2021/10/29 13:14:34;;;;;;;4.70;4.25;;;;;;;21.11;39.87;100808.35;1718000;82;21630;-60
2021/10/29 13:17:03;;;;;;;4.95;4.42;;;;;;;21.11;39.87;100808.35;1695196;82;21629;-61
2021/10/29 13:22:52;;;;;;;9.48;3.92;;;;;;;20.57;40.75;100816.81;1719563;82;21523;-60
2021/10/29 13:25:15;;;;;;;4.65;4.10;;;;;;;20.28;40.32;100815.19;1674175;84;21554;-60
2021/10/29 13:35:51;;;;;;;6.70;4.20;;;;;;;18.49;42.76;100816.16;1697645;82;21719;-59
2021/10/29 13:51:56;;;;;;;5.28;4.60;;;;;;;17.60;44.26;100822.88;1700310;83;21064;-58
2021/10/29 13:59:52;;;;;;;10.35;7.30;;;;;;;17.08;45.19;100822.01;1674940;83;21792;-60
2021/10/29 14:31:57;;;;;;;6.42;5.70;;;;;;;15.08;49.92;100815.38;1704478;80;21452;-58
2021/10/29 14:34:35;;;;;;;9.23;5.90;;;;;;;14.90;50.54;100821.02;1733482;80;21483;-59
2021/10/29 14:37:02;;;;;;;6.87;5.83;;;;;;;14.73;50.94;100818.19;1734817;81;21841;-59
2021/10/29 14:42:18;;;;;;;9.30;5.85;;;;;;;14.36;51.89;100823.16;1697858;81;21601;-60
2021/10/29 14:49:53;;;;;;;9.45;6.90;;;;;;;13.93;52.74;100816.89;1680570;81;21676;-60
2021/10/29 15:03:12;;;;;;;13.72;8.58;;;;;;;13.16;54.39;100817.48;1738110;80;21593;-59
2021/10/29 15:27:27;;;;;;;16.25;10.95;;;;;;;12.33;56.63;100838.68;1722947;81;21512;-58
2021/10/29 15:45:39;;;;;;;14.87;11.95;;;;;;;11.67;58.19;100831.77;1716536;82;21998;-59